sensor_id;sensor_type;location;lat;lon;timestamp;temperature;humidity
67249;SHT31;63247;54.300;18.592;2023-10-31T00:02:12;9.42;99.99
67249;SHT31;63247;54.300;18.592;2023-10-31T00:04:38;9.20;99.99
67249;SHT31;63247;54.300;18.592;2023-10-31T00:07:03;9.09;99.99
67249;SHT31;63247;54.300;18.592;2023-10-31T00:09:28;9.04;99.99
67249;SHT31;63247;54.300;18.592;2023-10-31T00:11:54;8.84;99.99
67249;SHT31;63247;54.300;18.592;2023-10-31T00:14:19;8.79;99.99
67249;SHT31;63247;54.300;18.592;2023-10-31T00:16:45;9.01;99.99
67249;SHT31;63247;54.300;18.592;2023-10-31T00:19:10;9.18;99.99
67249;SHT31;63247;54.300;18.592;2023-10-31T00:21:36;9.40;99.99
67249;SHT31;63247;54.300;18.592;2023-10-31T00:24:01;9.53;99.99
67249;SHT31;63247;54.300;18.592;2023-10-31T00:26:28;9.56;99.99
67249;SHT31;63247;54.300;18.592;2023-10-31T00:28:53;9.67;99.99
67249;SHT31;63247;54.300;18.592;2023-10-31T00:31:19;9.65;99.99
67249;SHT31;63247;54.300;18.592;2023-10-31T00:33:45;9.83;99.99
67249;SHT31;63247;54.300;18.592;2023-10-31T00:36:11;9.77;99.99
67249;SHT31;63247;54.300;18.592;2023-10-31T00:38:36;9.70;99.99
67249;SHT31;63247;54.300;18.592;2023-10-31T00:41:02;9.60;99.99
67249;SHT31;63247;54.300;18.592;2023-10-31T00:43:27;9.64;99.99
67249;SHT31;63247;54.300;18.592;2023-10-31T00:45:52;9.58;99.99
67249;SHT31;63247;54.300;18.592;2023-10-31T00:48:19;9.61;99.99
67249;SHT31;63247;54.300;18.592;2023-10-31T00:50:45;9.65;99.99
67249;SHT31;63247;54.300;18.592;2023-10-31T00:53:10;9.64;99.99
67249;SHT31;63247;54.300;18.592;2023-10-31T00:55:36;9.53;99.99
67249;SHT31;63247;54.300;18.592;2023-10-31T00:58:01;9.50;99.99
67249;SHT31;63247;54.300;18.592;2023-10-31T01:00:27;9.56;99.99
67249;SHT31;63247;54.300;18.592;2023-10-31T01:02:52;9.56;99.99
67249;SHT31;63247;54.300;18.592;2023-10-31T01:05:18;9.60;99.99
67249;SHT31;63247;54.300;18.592;2023-10-31T01:07:43;9.75;99.99
67249;SHT31;63247;54.300;18.592;2023-10-31T01:10:09;9.91;99.99
67249;SHT31;63247;54.300;18.592;2023-10-31T01:12:35;10.09;99.99
67249;SHT31;63247;54.300;18.592;2023-10-31T01:15:00;10.04;99.99
67249;SHT31;63247;54.300;18.592;2023-10-31T01:17:26;10.05;99.99
67249;SHT31;63247;54.300;18.592;2023-10-31T01:19:51;9.85;99.99
67249;SHT31;63247;54.300;18.592;2023-10-31T01:22:17;9.99;99.99
67249;SHT31;63247;54.300;18.592;2023-10-31T01:24:42;10.01;99.99
67249;SHT31;63247;54.300;18.592;2023-10-31T01:27:08;10.01;99.99
67249;SHT31;63247;54.300;18.592;2023-10-31T01:29:33;9.98;99.99
67249;SHT31;63247;54.300;18.592;2023-10-31T01:31:58;10.02;99.99
67249;SHT31;63247;54.300;18.592;2023-10-31T01:34:24;9.94;99.99
67249;SHT31;63247;54.300;18.592;2023-10-31T01:36:49;9.97;99.99
67249;SHT31;63247;54.300;18.592;2023-10-31T01:39:15;9.90;99.99
67249;SHT31;63247;54.300;18.592;2023-10-31T01:41:43;10.04;99.99
67249;SHT31;63247;54.300;18.592;2023-10-31T01:44:12;10.06;99.99
67249;SHT31;63247;54.300;18.592;2023-10-31T01:46:37;10.05;99.99
67249;SHT31;63247;54.300;18.592;2023-10-31T01:49:03;9.93;99.99
67249;SHT31;63247;54.300;18.592;2023-10-31T01:51:29;9.95;99.99
67249;SHT31;63247;54.300;18.592;2023-10-31T01:53:55;9.95;99.99
67249;SHT31;63247;54.300;18.592;2023-10-31T01:56:21;9.90;99.99
67249;SHT31;63247;54.300;18.592;2023-10-31T01:58:48;9.84;99.99
67249;SHT31;63247;54.300;18.592;2023-10-31T02:01:14;9.75;99.99
67249;SHT31;63247;54.300;18.592;2023-10-31T02:03:39;9.80;99.99
67249;SHT31;63247;54.300;18.592;2023-10-31T02:06:05;9.81;99.99
67249;SHT31;63247;54.300;18.592;2023-10-31T02:08:30;9.84;99.99
67249;SHT31;63247;54.300;18.592;2023-10-31T02:10:56;9.78;99.99
67249;SHT31;63247;54.300;18.592;2023-10-31T02:13:22;9.60;99.99
67249;SHT31;63247;54.300;18.592;2023-10-31T02:15:47;9.63;99.99
67249;SHT31;63247;54.300;18.592;2023-10-31T02:18:13;9.57;99.99
67249;SHT31;63247;54.300;18.592;2023-10-31T02:20:38;9.53;99.99
67249;SHT31;63247;54.300;18.592;2023-10-31T02:23:04;9.48;99.99
67249;SHT31;63247;54.300;18.592;2023-10-31T02:25:30;9.58;99.99
67249;SHT31;63247;54.300;18.592;2023-10-31T02:27:55;9.58;99.99
67249;SHT31;63247;54.300;18.592;2023-10-31T02:30:20;9.42;99.99
67249;SHT31;63247;54.300;18.592;2023-10-31T02:32:46;9.44;99.99
67249;SHT31;63247;54.300;18.592;2023-10-31T02:35:11;9.37;99.99
67249;SHT31;63247;54.300;18.592;2023-10-31T02:37:37;9.43;99.99
67249;SHT31;63247;54.300;18.592;2023-10-31T02:40:03;9.40;99.99
67249;SHT31;63247;54.300;18.592;2023-10-31T02:42:28;9.42;99.99
67249;SHT31;63247;54.300;18.592;2023-10-31T02:44:54;9.44;99.99
67249;SHT31;63247;54.300;18.592;2023-10-31T02:47:19;9.46;99.99
67249;SHT31;63247;54.300;18.592;2023-10-31T02:49:45;9.56;99.99
67249;SHT31;63247;54.300;18.592;2023-10-31T02:52:10;9.56;99.99
67249;SHT31;63247;54.300;18.592;2023-10-31T02:54:36;9.65;99.99
67249;SHT31;63247;54.300;18.592;2023-10-31T02:57:02;9.65;99.99
67249;SHT31;63247;54.300;18.592;2023-10-31T02:59:27;9.70;99.99
67249;SHT31;63247;54.300;18.592;2023-10-31T03:01:53;9.67;99.99
67249;SHT31;63247;54.300;18.592;2023-10-31T03:04:19;9.58;99.99
67249;SHT31;63247;54.300;18.592;2023-10-31T03:06:44;9.63;99.99
67249;SHT31;63247;54.300;18.592;2023-10-31T03:09:10;9.71;99.99
67249;SHT31;63247;54.300;18.592;2023-10-31T03:11:35;9.77;99.99
67249;SHT31;63247;54.300;18.592;2023-10-31T03:14:01;9.74;99.99
67249;SHT31;63247;54.300;18.592;2023-10-31T03:16:26;9.63;99.99
67249;SHT31;63247;54.300;18.592;2023-10-31T03:18:52;9.74;99.99
67249;SHT31;63247;54.300;18.592;2023-10-31T03:21:17;9.74;99.99
67249;SHT31;63247;54.300;18.592;2023-10-31T03:23:47;9.81;99.99
67249;SHT31;63247;54.300;18.592;2023-10-31T03:26:18;9.83;99.99
67249;SHT31;63247;54.300;18.592;2023-10-31T03:28:44;9.80;99.99
67249;SHT31;63247;54.300;18.592;2023-10-31T03:31:11;9.88;99.99
67249;SHT31;63247;54.300;18.592;2023-10-31T03:33:36;9.84;99.99
67249;SHT31;63247;54.300;18.592;2023-10-31T03:36:02;9.60;99.99
67249;SHT31;63247;54.300;18.592;2023-10-31T03:38:28;9.57;99.99
67249;SHT31;63247;54.300;18.592;2023-10-31T03:40:53;9.74;99.99
67249;SHT31;63247;54.300;18.592;2023-10-31T03:43:19;9.81;99.99
67249;SHT31;63247;54.300;18.592;2023-10-31T03:45:46;9.85;99.99
67249;SHT31;63247;54.300;18.592;2023-10-31T03:48:12;9.83;99.99
67249;SHT31;63247;54.300;18.592;2023-10-31T03:50:38;9.94;99.99
67249;SHT31;63247;54.300;18.592;2023-10-31T03:53:03;9.88;99.99
67249;SHT31;63247;54.300;18.592;2023-10-31T03:55:29;10.04;99.99
67249;SHT31;63247;54.300;18.592;2023-10-31T03:57:55;9.99;99.99
67249;SHT31;63247;54.300;18.592;2023-10-31T04:00:21;9.94;99.99
67249;SHT31;63247;54.300;18.592;2023-10-31T04:02:46;9.98;99.99
67249;SHT31;63247;54.300;18.592;2023-10-31T04:05:12;9.99;99.99
67249;SHT31;63247;54.300;18.592;2023-10-31T04:07:37;10.09;99.99
67249;SHT31;63247;54.300;18.592;2023-10-31T04:10:03;10.22;99.99
67249;SHT31;63247;54.300;18.592;2023-10-31T04:12:29;10.23;99.99
67249;SHT31;63247;54.300;18.592;2023-10-31T04:14:54;10.25;99.99
67249;SHT31;63247;54.300;18.592;2023-10-31T04:17:20;10.26;99.99
67249;SHT31;63247;54.300;18.592;2023-10-31T04:19:45;10.15;99.99
67249;SHT31;63247;54.300;18.592;2023-10-31T04:22:11;10.26;99.99
67249;SHT31;63247;54.300;18.592;2023-10-31T04:24:36;10.28;99.99
67249;SHT31;63247;54.300;18.592;2023-10-31T04:27:01;10.19;99.99
67249;SHT31;63247;54.300;18.592;2023-10-31T04:29:27;10.25;99.99
67249;SHT31;63247;54.300;18.592;2023-10-31T04:31:52;10.25;99.99
67249;SHT31;63247;54.300;18.592;2023-10-31T04:34:17;10.25;99.99
67249;SHT31;63247;54.300;18.592;2023-10-31T04:36:43;10.42;99.99
67249;SHT31;63247;54.300;18.592;2023-10-31T04:39:09;10.36;99.99
67249;SHT31;63247;54.300;18.592;2023-10-31T04:41:34;10.25;99.99
67249;SHT31;63247;54.300;18.592;2023-10-31T04:44:00;10.28;99.99
67249;SHT31;63247;54.300;18.592;2023-10-31T04:46:25;10.36;99.99
67249;SHT31;63247;54.300;18.592;2023-10-31T04:48:54;10.45;99.99
67249;SHT31;63247;54.300;18.592;2023-10-31T04:51:19;10.35;99.99
67249;SHT31;63247;54.300;18.592;2023-10-31T04:53:45;10.56;99.99
67249;SHT31;63247;54.300;18.592;2023-10-31T04:56:14;10.56;99.99
67249;SHT31;63247;54.300;18.592;2023-10-31T04:58:43;10.55;99.99
67249;SHT31;63247;54.300;18.592;2023-10-31T05:01:13;10.57;99.99
67249;SHT31;63247;54.300;18.592;2023-10-31T05:03:38;10.70;99.99
67249;SHT31;63247;54.300;18.592;2023-10-31T05:06:05;10.55;99.99
67249;SHT31;63247;54.300;18.592;2023-10-31T05:08:30;10.57;99.99
67249;SHT31;63247;54.300;18.592;2023-10-31T05:10:57;10.63;99.99
67249;SHT31;63247;54.300;18.592;2023-10-31T05:13:22;10.66;99.99
67249;SHT31;63247;54.300;18.592;2023-10-31T05:15:48;10.52;99.99
67249;SHT31;63247;54.300;18.592;2023-10-31T05:18:13;10.57;99.99
67249;SHT31;63247;54.300;18.592;2023-10-31T05:20:38;10.70;99.99
67249;SHT31;63247;54.300;18.592;2023-10-31T05:23:04;10.73;99.99
67249;SHT31;63247;54.300;18.592;2023-10-31T05:25:30;10.80;99.99
67249;SHT31;63247;54.300;18.592;2023-10-31T05:27:56;10.81;99.99
67249;SHT31;63247;54.300;18.592;2023-10-31T05:30:21;10.79;99.99
67249;SHT31;63247;54.300;18.592;2023-10-31T05:32:47;10.79;99.99
67249;SHT31;63247;54.300;18.592;2023-10-31T05:35:12;10.81;99.99
67249;SHT31;63247;54.300;18.592;2023-10-31T05:37:38;10.83;99.99
67249;SHT31;63247;54.300;18.592;2023-10-31T05:40:03;10.80;99.99
67249;SHT31;63247;54.300;18.592;2023-10-31T05:42:30;10.73;99.99
67249;SHT31;63247;54.300;18.592;2023-10-31T05:44:56;10.80;99.99
67249;SHT31;63247;54.300;18.592;2023-10-31T05:47:25;10.76;99.99
67249;SHT31;63247;54.300;18.592;2023-10-31T05:49:50;10.73;99.99
67249;SHT31;63247;54.300;18.592;2023-10-31T05:52:16;10.71;99.99
67249;SHT31;63247;54.300;18.592;2023-10-31T05:54:41;10.62;99.99
67249;SHT31;63247;54.300;18.592;2023-10-31T05:57:06;10.52;99.99
67249;SHT31;63247;54.300;18.592;2023-10-31T05:59:32;10.46;99.99
67249;SHT31;63247;54.300;18.592;2023-10-31T06:02:00;10.49;99.99
67249;SHT31;63247;54.300;18.592;2023-10-31T06:04:25;10.49;99.99
67249;SHT31;63247;54.300;18.592;2023-10-31T06:06:51;10.31;99.99
67249;SHT31;63247;54.300;18.592;2023-10-31T06:09:17;10.28;99.99
67249;SHT31;63247;54.300;18.592;2023-10-31T06:11:42;10.29;99.99
67249;SHT31;63247;54.300;18.592;2023-10-31T06:14:09;10.26;99.99
67249;SHT31;63247;54.300;18.592;2023-10-31T06:16:40;10.19;99.99
67249;SHT31;63247;54.300;18.592;2023-10-31T06:19:06;10.22;99.99
67249;SHT31;63247;54.300;18.592;2023-10-31T06:21:32;10.25;99.99
67249;SHT31;63247;54.300;18.592;2023-10-31T06:23:57;10.39;99.99
67249;SHT31;63247;54.300;18.592;2023-10-31T06:26:22;10.55;99.99
67249;SHT31;63247;54.300;18.592;2023-10-31T06:28:48;10.71;99.99
67249;SHT31;63247;54.300;18.592;2023-10-31T06:31:13;11.03;99.99
67249;SHT31;63247;54.300;18.592;2023-10-31T06:33:38;10.80;99.99
67249;SHT31;63247;54.300;18.592;2023-10-31T06:36:04;10.74;99.99
67249;SHT31;63247;54.300;18.592;2023-10-31T06:38:31;10.62;99.99
67249;SHT31;63247;54.300;18.592;2023-10-31T06:40:57;10.74;99.99
67249;SHT31;63247;54.300;18.592;2023-10-31T06:43:22;11.01;99.99
67249;SHT31;63247;54.300;18.592;2023-10-31T06:45:47;11.28;99.99
67249;SHT31;63247;54.300;18.592;2023-10-31T06:48:13;11.40;99.99
67249;SHT31;63247;54.300;18.592;2023-10-31T06:50:38;11.18;99.99
67249;SHT31;63247;54.300;18.592;2023-10-31T06:53:03;10.91;99.99
67249;SHT31;63247;54.300;18.592;2023-10-31T06:55:29;10.73;99.99
67249;SHT31;63247;54.300;18.592;2023-10-31T06:57:54;10.69;99.99
67249;SHT31;63247;54.300;18.592;2023-10-31T07:00:20;10.66;99.99
67249;SHT31;63247;54.300;18.592;2023-10-31T07:02:46;10.56;99.99
67249;SHT31;63247;54.300;18.592;2023-10-31T07:05:13;10.57;99.99
67249;SHT31;63247;54.300;18.592;2023-10-31T07:07:39;10.56;99.99
67249;SHT31;63247;54.300;18.592;2023-10-31T07:10:05;10.62;99.99
67249;SHT31;63247;54.300;18.592;2023-10-31T07:12:31;10.62;99.99
67249;SHT31;63247;54.300;18.592;2023-10-31T07:14:56;10.62;99.99
67249;SHT31;63247;54.300;18.592;2023-10-31T07:17:24;10.55;99.99
67249;SHT31;63247;54.300;18.592;2023-10-31T07:19:49;10.52;99.99
67249;SHT31;63247;54.300;18.592;2023-10-31T07:22:14;10.50;99.99
67249;SHT31;63247;54.300;18.592;2023-10-31T07:24:40;10.48;99.99
67249;SHT31;63247;54.300;18.592;2023-10-31T07:27:06;10.53;99.99
67249;SHT31;63247;54.300;18.592;2023-10-31T07:29:31;10.45;99.99
67249;SHT31;63247;54.300;18.592;2023-10-31T07:31:56;10.45;99.99
67249;SHT31;63247;54.300;18.592;2023-10-31T07:34:22;10.46;99.99
67249;SHT31;63247;54.300;18.592;2023-10-31T07:36:47;10.49;99.99
67249;SHT31;63247;54.300;18.592;2023-10-31T07:39:13;10.46;99.99
67249;SHT31;63247;54.300;18.592;2023-10-31T07:41:39;10.43;99.99
67249;SHT31;63247;54.300;18.592;2023-10-31T07:44:06;10.46;99.99
67249;SHT31;63247;54.300;18.592;2023-10-31T07:46:31;10.52;99.99
67249;SHT31;63247;54.300;18.592;2023-10-31T07:48:57;10.50;99.99
67249;SHT31;63247;54.300;18.592;2023-10-31T07:51:23;10.53;99.99
67249;SHT31;63247;54.300;18.592;2023-10-31T07:53:48;10.56;99.99
67249;SHT31;63247;54.300;18.592;2023-10-31T07:56:17;10.55;99.99
67249;SHT31;63247;54.300;18.592;2023-10-31T07:58:44;10.59;99.99
67249;SHT31;63247;54.300;18.592;2023-10-31T08:01:09;10.57;99.99
67249;SHT31;63247;54.300;18.592;2023-10-31T08:03:39;10.74;99.99
67249;SHT31;63247;54.300;18.592;2023-10-31T08:06:05;10.77;99.99
67249;SHT31;63247;54.300;18.592;2023-10-31T08:08:31;10.81;99.99
67249;SHT31;63247;54.300;18.592;2023-10-31T08:10:56;10.85;99.99
67249;SHT31;63247;54.300;18.592;2023-10-31T08:13:24;10.94;99.99
67249;SHT31;63247;54.300;18.592;2023-10-31T08:15:50;10.93;99.99
67249;SHT31;63247;54.300;18.592;2023-10-31T08:18:15;11.01;99.99
67249;SHT31;63247;54.300;18.592;2023-10-31T08:20:41;11.06;99.99
67249;SHT31;63247;54.300;18.592;2023-10-31T08:23:08;11.08;99.99
67249;SHT31;63247;54.300;18.592;2023-10-31T08:25:33;11.06;99.99
67249;SHT31;63247;54.300;18.592;2023-10-31T08:27:59;11.12;99.99
67249;SHT31;63247;54.300;18.592;2023-10-31T08:30:24;11.10;99.99
67249;SHT31;63247;54.300;18.592;2023-10-31T08:32:50;11.17;99.99
67249;SHT31;63247;54.300;18.592;2023-10-31T08:35:15;11.21;99.99
67249;SHT31;63247;54.300;18.592;2023-10-31T08:37:40;11.24;99.99
67249;SHT31;63247;54.300;18.592;2023-10-31T08:40:06;11.29;99.99
67249;SHT31;63247;54.300;18.592;2023-10-31T08:42:32;11.27;99.99
67249;SHT31;63247;54.300;18.592;2023-10-31T08:44:57;11.22;99.99
67249;SHT31;63247;54.300;18.592;2023-10-31T08:47:23;11.24;99.99
67249;SHT31;63247;54.300;18.592;2023-10-31T08:49:48;11.25;99.99
67249;SHT31;63247;54.300;18.592;2023-10-31T08:52:13;11.28;99.99
67249;SHT31;63247;54.300;18.592;2023-10-31T08:54:39;11.27;99.99
67249;SHT31;63247;54.300;18.592;2023-10-31T08:57:04;11.29;99.99
67249;SHT31;63247;54.300;18.592;2023-10-31T08:59:30;11.31;99.99
67249;SHT31;63247;54.300;18.592;2023-10-31T09:01:55;11.25;99.99
67249;SHT31;63247;54.300;18.592;2023-10-31T09:04:20;11.34;99.99
67249;SHT31;63247;54.300;18.592;2023-10-31T09:06:46;11.42;99.99
67249;SHT31;63247;54.300;18.592;2023-10-31T09:09:11;11.40;99.99
67249;SHT31;63247;54.300;18.592;2023-10-31T09:11:38;11.46;99.99
67249;SHT31;63247;54.300;18.592;2023-10-31T09:14:04;11.40;99.99
67249;SHT31;63247;54.300;18.592;2023-10-31T09:16:29;11.42;99.99
67249;SHT31;63247;54.300;18.592;2023-10-31T09:18:55;11.42;99.99
67249;SHT31;63247;54.300;18.592;2023-10-31T09:21:20;11.40;99.99
67249;SHT31;63247;54.300;18.592;2023-10-31T09:23:46;11.48;99.99
67249;SHT31;63247;54.300;18.592;2023-10-31T09:26:12;11.54;99.99
67249;SHT31;63247;54.300;18.592;2023-10-31T09:28:37;11.65;99.99
67249;SHT31;63247;54.300;18.592;2023-10-31T09:31:04;11.63;99.99
67249;SHT31;63247;54.300;18.592;2023-10-31T09:33:29;11.67;99.99
67249;SHT31;63247;54.300;18.592;2023-10-31T09:35:55;11.70;99.99
67249;SHT31;63247;54.300;18.592;2023-10-31T09:38:20;11.70;99.99
67249;SHT31;63247;54.300;18.592;2023-10-31T09:40:46;11.80;99.99
67249;SHT31;63247;54.300;18.592;2023-10-31T09:43:11;11.77;99.99
67249;SHT31;63247;54.300;18.592;2023-10-31T09:45:36;11.79;99.99
67249;SHT31;63247;54.300;18.592;2023-10-31T09:48:02;11.87;99.99
67249;SHT31;63247;54.300;18.592;2023-10-31T09:50:29;11.97;99.99
67249;SHT31;63247;54.300;18.592;2023-10-31T09:52:56;12.07;99.99
67249;SHT31;63247;54.300;18.592;2023-10-31T09:55:22;12.12;99.99
67249;SHT31;63247;54.300;18.592;2023-10-31T09:57:47;12.20;99.99
67249;SHT31;63247;54.300;18.592;2023-10-31T10:00:13;12.20;99.99
67249;SHT31;63247;54.300;18.592;2023-10-31T10:02:39;12.31;99.99
67249;SHT31;63247;54.300;18.592;2023-10-31T10:05:04;12.40;99.99
67249;SHT31;63247;54.300;18.592;2023-10-31T10:07:33;12.35;99.99
67249;SHT31;63247;54.300;18.592;2023-10-31T10:09:59;12.42;99.99
67249;SHT31;63247;54.300;18.592;2023-10-31T10:12:26;12.49;99.99
67249;SHT31;63247;54.300;18.592;2023-10-31T10:14:52;12.52;99.99
67249;SHT31;63247;54.300;18.592;2023-10-31T10:17:21;12.55;99.99
67249;SHT31;63247;54.300;18.592;2023-10-31T10:19:47;12.59;99.99
67249;SHT31;63247;54.300;18.592;2023-10-31T10:22:12;12.62;99.99
67249;SHT31;63247;54.300;18.592;2023-10-31T10:24:40;12.73;99.99
67249;SHT31;63247;54.300;18.592;2023-10-31T10:27:09;12.76;99.99
67249;SHT31;63247;54.300;18.592;2023-10-31T10:29:35;12.83;99.99
67249;SHT31;63247;54.300;18.592;2023-10-31T10:32:05;12.88;99.99
67249;SHT31;63247;54.300;18.592;2023-10-31T10:34:31;12.93;99.99
67249;SHT31;63247;54.300;18.592;2023-10-31T10:36:57;13.02;99.99
67249;SHT31;63247;54.300;18.592;2023-10-31T10:39:23;13.12;99.99
67249;SHT31;63247;54.300;18.592;2023-10-31T10:41:53;13.12;99.99
67249;SHT31;63247;54.300;18.592;2023-10-31T10:44:35;13.24;99.99
67249;SHT31;63247;54.300;18.592;2023-10-31T10:47:05;13.27;99.99
67249;SHT31;63247;54.300;18.592;2023-10-31T10:49:35;13.23;99.99
67249;SHT31;63247;54.300;18.592;2023-10-31T10:52:22;13.33;99.99
67249;SHT31;63247;54.300;18.592;2023-10-31T11:00:15;13.43;99.99
67249;SHT31;63247;54.300;18.592;2023-10-31T11:02:42;13.44;99.99
67249;SHT31;63247;54.300;18.592;2023-10-31T11:05:08;13.47;99.99
67249;SHT31;63247;54.300;18.592;2023-10-31T11:07:36;13.54;99.99
67249;SHT31;63247;54.300;18.592;2023-10-31T11:10:02;13.51;99.99
67249;SHT31;63247;54.300;18.592;2023-10-31T11:12:30;13.71;99.99
67249;SHT31;63247;54.300;18.592;2023-10-31T11:15:00;13.72;99.99
67249;SHT31;63247;54.300;18.592;2023-10-31T11:17:29;13.85;99.99
67249;SHT31;63247;54.300;18.592;2023-10-31T11:19:55;13.85;99.99
67249;SHT31;63247;54.300;18.592;2023-10-31T11:22:21;14.02;99.99
67249;SHT31;63247;54.300;18.592;2023-10-31T11:24:48;13.99;99.99
67249;SHT31;63247;54.300;18.592;2023-10-31T11:27:14;14.05;99.99
67249;SHT31;63247;54.300;18.592;2023-10-31T11:29:41;13.95;99.99
67249;SHT31;63247;54.300;18.592;2023-10-31T11:32:10;13.92;99.99
67249;SHT31;63247;54.300;18.592;2023-10-31T11:34:39;13.88;99.99
67249;SHT31;63247;54.300;18.592;2023-10-31T11:42:43;13.98;99.99
67249;SHT31;63247;54.300;18.592;2023-10-31T11:45:09;14.05;99.99
67249;SHT31;63247;54.300;18.592;2023-10-31T11:47:51;14.17;99.99
67249;SHT31;63247;54.300;18.592;2023-10-31T11:50:17;14.17;99.99
67249;SHT31;63247;54.300;18.592;2023-10-31T11:52:42;14.17;99.99
67249;SHT31;63247;54.300;18.592;2023-10-31T11:55:12;14.10;99.99
67249;SHT31;63247;54.300;18.592;2023-10-31T11:57:38;14.08;99.99
67249;SHT31;63247;54.300;18.592;2023-10-31T12:00:05;14.10;99.99
67249;SHT31;63247;54.300;18.592;2023-10-31T12:02:31;13.99;99.99
67249;SHT31;63247;54.300;18.592;2023-10-31T12:05:16;13.99;99.99
67249;SHT31;63247;54.300;18.592;2023-10-31T12:07:43;13.96;99.99
67249;SHT31;63247;54.300;18.592;2023-10-31T12:10:09;13.92;99.99
67249;SHT31;63247;54.300;18.592;2023-10-31T12:12:35;13.74;99.99
67249;SHT31;63247;54.300;18.592;2023-10-31T12:15:09;13.81;99.99
67249;SHT31;63247;54.300;18.592;2023-10-31T12:17:35;13.90;99.99
67249;SHT31;63247;54.300;18.592;2023-10-31T12:20:06;13.77;99.99
67249;SHT31;63247;54.300;18.592;2023-10-31T12:22:32;13.75;99.99
67249;SHT31;63247;54.300;18.592;2023-10-31T12:25:06;13.65;99.99
67249;SHT31;63247;54.300;18.592;2023-10-31T12:27:50;13.67;99.99
67249;SHT31;63247;54.300;18.592;2023-10-31T12:30:17;13.62;99.99
67249;SHT31;63247;54.300;18.592;2023-10-31T12:32:44;13.65;99.99
67249;SHT31;63247;54.300;18.592;2023-10-31T12:35:20;13.67;99.99
67249;SHT31;63247;54.300;18.592;2023-10-31T12:37:47;13.64;99.99
67249;SHT31;63247;54.300;18.592;2023-10-31T12:40:16;13.57;99.99
67249;SHT31;63247;54.300;18.592;2023-10-31T12:42:43;13.71;99.99
67249;SHT31;63247;54.300;18.592;2023-10-31T12:45:09;13.62;99.99
67249;SHT31;63247;54.300;18.592;2023-10-31T12:47:35;13.60;99.99
67249;SHT31;63247;54.300;18.592;2023-10-31T12:50:08;13.58;99.99
67249;SHT31;63247;54.300;18.592;2023-10-31T12:53:01;13.53;99.99
67249;SHT31;63247;54.300;18.592;2023-10-31T12:55:29;13.51;99.99
67249;SHT31;63247;54.300;18.592;2023-10-31T12:57:55;13.65;99.99
67249;SHT31;63247;54.300;18.592;2023-10-31T13:00:22;13.62;99.99
67249;SHT31;63247;54.300;18.592;2023-10-31T13:03:08;13.68;99.99
67249;SHT31;63247;54.300;18.592;2023-10-31T13:05:34;13.58;99.99
67249;SHT31;63247;54.300;18.592;2023-10-31T13:08:01;13.74;99.99
67249;SHT31;63247;54.300;18.592;2023-10-31T13:10:29;13.74;99.99
67249;SHT31;63247;54.300;18.592;2023-10-31T13:12:56;13.68;99.99
67249;SHT31;63247;54.300;18.592;2023-10-31T13:15:23;13.69;99.99
67249;SHT31;63247;54.300;18.592;2023-10-31T13:17:49;13.71;99.99
67249;SHT31;63247;54.300;18.592;2023-10-31T13:20:16;13.81;99.99
67249;SHT31;63247;54.300;18.592;2023-10-31T13:22:43;13.82;99.99
67249;SHT31;63247;54.300;18.592;2023-10-31T13:25:10;13.83;99.99
67249;SHT31;63247;54.300;18.592;2023-10-31T13:27:45;13.89;99.99
67249;SHT31;63247;54.300;18.592;2023-10-31T13:30:16;13.82;99.99
67249;SHT31;63247;54.300;18.592;2023-10-31T13:32:43;13.74;99.99
67249;SHT31;63247;54.300;18.592;2023-10-31T13:35:08;13.69;99.99
67249;SHT31;63247;54.300;18.592;2023-10-31T13:37:39;13.62;99.99
67249;SHT31;63247;54.300;18.592;2023-10-31T13:40:05;13.55;99.99
67249;SHT31;63247;54.300;18.592;2023-10-31T13:42:33;13.58;99.99
67249;SHT31;63247;54.300;18.592;2023-10-31T13:44:59;13.58;99.99
67249;SHT31;63247;54.300;18.592;2023-10-31T13:47:24;13.54;99.99
67249;SHT31;63247;54.300;18.592;2023-10-31T13:49:49;13.48;99.99
67249;SHT31;63247;54.300;18.592;2023-10-31T13:52:15;13.50;99.99
67249;SHT31;63247;54.300;18.592;2023-10-31T13:54:41;13.50;99.99
67249;SHT31;63247;54.300;18.592;2023-10-31T13:57:06;13.60;99.99
67249;SHT31;63247;54.300;18.592;2023-10-31T13:59:31;13.55;99.99
67249;SHT31;63247;54.300;18.592;2023-10-31T14:01:57;13.44;99.99
67249;SHT31;63247;54.300;18.592;2023-10-31T14:04:22;13.37;99.99
67249;SHT31;63247;54.300;18.592;2023-10-31T14:06:48;13.40;99.99
67249;SHT31;63247;54.300;18.592;2023-10-31T14:09:13;13.37;99.99
67249;SHT31;63247;54.300;18.592;2023-10-31T14:11:40;13.31;99.99
67249;SHT31;63247;54.300;18.592;2023-10-31T14:14:07;13.33;99.99
67249;SHT31;63247;54.300;18.592;2023-10-31T14:16:34;13.30;99.99
67249;SHT31;63247;54.300;18.592;2023-10-31T14:19:00;13.30;99.99
67249;SHT31;63247;54.300;18.592;2023-10-31T14:21:27;13.33;99.99
67249;SHT31;63247;54.300;18.592;2023-10-31T14:23:52;13.30;99.99
67249;SHT31;63247;54.300;18.592;2023-10-31T14:26:20;13.34;99.99
67249;SHT31;63247;54.300;18.592;2023-10-31T14:28:46;13.34;99.99
67249;SHT31;63247;54.300;18.592;2023-10-31T14:31:11;13.41;99.99
67249;SHT31;63247;54.300;18.592;2023-10-31T14:33:37;13.37;99.99
67249;SHT31;63247;54.300;18.592;2023-10-31T14:36:02;13.31;99.99
67249;SHT31;63247;54.300;18.592;2023-10-31T14:38:28;13.30;99.99
67249;SHT31;63247;54.300;18.592;2023-10-31T14:40:53;13.31;99.99
67249;SHT31;63247;54.300;18.592;2023-10-31T14:43:19;13.24;99.99
67249;SHT31;63247;54.300;18.592;2023-10-31T14:45:44;13.33;99.99
67249;SHT31;63247;54.300;18.592;2023-10-31T14:48:10;13.30;99.99
67249;SHT31;63247;54.300;18.592;2023-10-31T14:50:35;13.27;99.99
67249;SHT31;63247;54.300;18.592;2023-10-31T14:53:01;13.27;99.99
67249;SHT31;63247;54.300;18.592;2023-10-31T14:55:26;13.28;99.99
67249;SHT31;63247;54.300;18.592;2023-10-31T14:57:52;13.26;99.99
67249;SHT31;63247;54.300;18.592;2023-10-31T15:00:17;13.31;99.99
67249;SHT31;63247;54.300;18.592;2023-10-31T15:02:43;13.28;99.99
67249;SHT31;63247;54.300;18.592;2023-10-31T15:05:08;13.30;99.99
67249;SHT31;63247;54.300;18.592;2023-10-31T15:07:34;13.19;99.99
67249;SHT31;63247;54.300;18.592;2023-10-31T15:09:59;13.30;99.99
67249;SHT31;63247;54.300;18.592;2023-10-31T15:12:26;13.20;99.99
67249;SHT31;63247;54.300;18.592;2023-10-31T15:14:51;13.19;99.99
67249;SHT31;63247;54.300;18.592;2023-10-31T15:17:17;13.17;99.99
67249;SHT31;63247;54.300;18.592;2023-10-31T15:19:42;13.17;99.99
67249;SHT31;63247;54.300;18.592;2023-10-31T15:22:07;13.16;99.99
67249;SHT31;63247;54.300;18.592;2023-10-31T15:24:33;13.12;99.99
67249;SHT31;63247;54.300;18.592;2023-10-31T15:26:59;13.17;99.99